Time;durP1;ratioP1;P1;durP2;ratioP2;P2;SDS_P1;SDS_P2;PMS_P1;PMS_P2;Temp;Humidity;BMP_temperature;BMP_pressure;BME280_temperature;BME280_humidity;BME280_pressure;Samples;Min_cycle;Max_cycle;Signal;HPM_P1;HPM_P2
2022/07/29 00:01:02;;;;;;;11.10;3.55;;;;;;;15.99;42.50;101348.59;5030129;28;20155;-70
2022/07/29 00:03:29;;;;;;;9.30;3.10;;;;;;;16.14;42.32;101345.94;5051488;28;20068;-70
2022/07/29 00:05:55;;;;;;;12.65;3.85;;;;;;;16.08;42.40;101347.50;5043776;28;20068;-70
2022/07/29 00:08:22;;;;;;;8.40;3.28;;;;;;;16.11;42.43;101341.72;5032797;28;20131;-70
2022/07/29 00:10:49;;;;;;;13.57;3.80;;;;;;;15.97;42.99;101349.81;5013328;28;20050;-70
2022/07/29 00:13:16;;;;;;;15.00;3.47;;;;;;;15.80;43.39;101355.31;5012596;28;20546;-70
2022/07/29 00:15:42;;;;;;;13.32;3.17;;;;;;;15.77;43.64;101352.13;5012843;28;20065;-70
2022/07/29 00:18:09;;;;;;;9.52;3.35;;;;;;;15.82;43.66;101344.34;5011558;28;20550;-70
2022/07/29 00:20:35;;;;;;;14.15;4.05;;;;;;;15.93;43.25;101347.47;5011194;28;20124;-70
2022/07/29 00:23:02;;;;;;;5.97;3.30;;;;;;;15.77;43.73;101344.03;5010060;28;20132;-70
2022/07/29 00:25:29;;;;;;;11.15;3.97;;;;;;;15.84;43.82;101339.56;5011849;28;20038;-69
2022/07/29 00:27:59;;;;;;;13.95;3.28;;;;;;;15.81;43.76;101335.38;5011339;28;20129;-69
2022/07/29 00:30:25;;;;;;;12.38;3.40;;;;;;;15.68;44.21;101341.38;5011650;28;20137;-69
2022/07/29 00:32:52;;;;;;;9.23;3.47;;;;;;;15.44;44.79;101331.50;5012252;28;20111;-69
2022/07/29 00:38:03;;;;;;;12.93;3.42;;;;;;;15.66;44.44;101334.47;5010495;28;20066;-69
2022/07/29 00:40:29;;;;;;;9.23;3.50;;;;;;;15.58;44.57;101338.03;5010963;28;20132;-70
2022/07/29 00:42:56;;;;;;;8.60;3.25;;;;;;;15.51;44.86;101337.06;5010946;28;20096;-70
2022/07/29 00:45:25;;;;;;;11.63;4.70;;;;;;;15.51;44.91;101338.91;5010152;28;20046;-70
2022/07/29 00:47:51;;;;;;;10.35;3.80;;;;;;;15.68;44.65;101333.25;5011302;28;20120;-70
2022/07/29 00:50:18;;;;;;;11.43;3.90;;;;;;;15.58;44.80;101335.31;5010609;28;20076;-70
2022/07/29 00:52:45;;;;;;;14.85;3.70;;;;;;;15.40;45.37;101321.25;5010614;28;20141;-70
2022/07/29 00:55:15;;;;;;;10.23;4.00;;;;;;;15.60;45.09;101327.84;5011062;28;20084;-70
2022/07/29 00:57:44;;;;;;;12.93;3.47;;;;;;;15.34;45.78;101317.38;5011351;28;20046;-70
2022/07/29 01:00:18;;;;;;;12.00;3.97;;;;;;;15.33;46.05;101318.41;5011176;28;20096;-70
2022/07/29 01:02:48;;;;;;;9.77;3.78;;;;;;;15.35;46.00;101318.22;5010684;28;20073;-70
2022/07/29 01:08:55;;;;;;;13.57;4.20;;;;;;;15.18;46.50;101318.28;5010192;28;20053;-70
2022/07/29 01:11:22;;;;;;;6.88;3.45;;;;;;;15.36;46.05;101315.34;5010280;28;20129;-70
2022/07/29 01:13:49;;;;;;;10.55;3.65;;;;;;;15.42;46.24;101319.19;5010617;28;20125;-70
2022/07/29 01:16:31;;;;;;;8.85;3.20;;;;;;;15.24;46.60;101311.34;5010261;28;20137;-70
2022/07/29 01:19:12;;;;;;;10.45;3.58;;;;;;;15.24;46.66;101312.19;5003980;28;20483;-70
2022/07/29 01:21:57;;;;;;;7.60;3.70;;;;;;;15.11;46.98;101314.59;5010759;28;20048;-70
2022/07/29 01:24:52;;;;;;;10.02;3.35;;;;;;;15.30;46.57;101299.00;5009777;28;20136;-70
2022/07/29 01:27:34;;;;;;;15.45;3.80;;;;;;;15.03;47.31;101298.44;4995076;28;20069;-70
2022/07/29 01:30:02;;;;;;;9.38;3.72;;;;;;;15.12;47.15;101292.00;5010722;28;20046;-70
2022/07/29 01:32:36;;;;;;;11.23;3.97;;;;;;;15.02;47.47;101280.53;5012684;28;20405;-70
2022/07/29 01:35:10;;;;;;;9.23;3.35;;;;;;;15.01;47.43;101270.72;5013194;28;20134;-69
2022/07/29 01:37:54;;;;;;;11.30;3.78;;;;;;;15.13;47.20;101266.63;5009036;28;20509;-68
2022/07/29 01:40:28;;;;;;;12.55;3.42;;;;;;;15.12;47.20;101264.09;5010549;28;20041;-70
2022/07/29 01:42:57;;;;;;;9.50;3.40;;;;;;;15.15;47.10;101253.78;5011585;28;20482;-69
2022/07/29 01:45:38;;;;;;;13.82;3.35;;;;;;;15.05;47.36;101252.31;5011339;28;20045;-69
2022/07/29 01:48:13;;;;;;;11.05;3.17;;;;;;;15.16;47.23;101244.66;5010444;28;20513;-69
2022/07/29 01:50:53;;;;;;;7.68;3.08;;;;;;;15.27;46.87;101254.22;5010226;28;20050;-71
2022/07/29 01:53:33;;;;;;;18.58;3.78;;;;;;;15.15;47.19;101245.66;5007226;28;20391;-71
2022/07/29 01:56:06;;;;;;;9.13;3.22;;;;;;;15.03;47.48;101244.41;5002223;28;20502;-70
2022/07/29 01:58:37;;;;;;;9.88;3.00;;;;;;;15.12;47.42;101240.63;5011377;28;20137;-69
2022/07/29 02:01:08;;;;;;;11.18;3.00;;;;;;;15.16;47.20;101239.25;5013403;28;20072;-70
2022/07/29 02:03:36;;;;;;;6.38;3.33;;;;;;;15.15;47.26;101237.56;5014253;28;20057;-70
2022/07/29 02:06:06;;;;;;;14.65;3.97;;;;;;;15.04;47.63;101234.41;5013831;28;20125;-70
2022/07/29 02:08:34;;;;;;;12.02;3.10;;;;;;;15.06;47.55;101237.81;5012114;28;20493;-70
2022/07/29 02:11:03;;;;;;;9.70;3.60;;;;;;;14.93;48.00;101243.78;5013668;28;20069;-69
2022/07/29 02:13:31;;;;;;;7.55;3.30;;;;;;;14.81;48.12;101247.84;5013361;28;20129;-69
2022/07/29 02:15:59;;;;;;;7.47;3.13;;;;;;;14.84;48.26;101242.09;5007513;28;20495;-70
2022/07/29 02:18:28;;;;;;;10.95;3.72;;;;;;;15.01;47.76;101241.00;5016606;28;20477;-70
2022/07/29 02:20:58;;;;;;;9.45;3.22;;;;;;;14.89;47.91;101239.75;5013165;28;20104;-70
2022/07/29 02:23:26;;;;;;;13.50;3.65;;;;;;;14.74;48.41;101245.03;5013563;28;20132;-70
2022/07/29 02:25:55;;;;;;;9.48;3.42;;;;;;;15.01;47.73;101252.66;5007442;28;20054;-70
2022/07/29 02:28:27;;;;;;;16.27;3.63;;;;;;;15.08;47.64;101254.66;5013764;28;20069;-70
2022/07/29 02:30:58;;;;;;;10.25;3.55;;;;;;;15.01;47.79;101254.53;5013347;28;20068;-70
2022/07/29 02:33:26;;;;;;;8.15;3.15;;;;;;;15.03;47.62;101255.19;5014069;28;20065;-70
2022/07/29 02:35:53;;;;;;;8.98;3.33;;;;;;;14.99;47.63;101243.06;5009849;28;20141;-70
2022/07/29 02:41:11;;;;;;;9.02;3.45;;;;;;;14.77;48.40;101250.94;5013140;28;20072;-70
2022/07/29 02:43:40;;;;;;;11.07;3.88;;;;;;;14.71;48.43;101248.06;5012845;28;20132;-69
2022/07/29 02:46:12;;;;;;;12.57;4.15;;;;;;;14.74;48.38;101248.59;5011533;28;20046;-70
2022/07/29 02:49:18;;;;;;;10.65;2.80;;;;;;;14.54;48.71;101252.66;5012187;28;20888;-70
2022/07/29 02:52:00;;;;;;;7.43;3.40;;;;;;;14.70;48.44;101251.75;5013239;28;20050;-70
2022/07/29 02:54:29;;;;;;;11.77;3.40;;;;;;;14.62;48.64;101244.53;5012941;28;20133;-70
2022/07/29 02:57:00;;;;;;;5.68;3.15;;;;;;;14.64;48.69;101247.91;5012813;28;20409;-70
2022/07/29 02:59:30;;;;;;;9.05;3.58;;;;;;;14.58;48.74;101243.19;5013034;28;20042;-70
2022/07/29 03:01:58;;;;;;;8.23;3.13;;;;;;;14.50;48.96;101248.63;5013728;28;20053;-70
2022/07/29 03:04:28;;;;;;;6.22;2.90;;;;;;;14.44;49.08;101246.63;5012000;28;20095;-70
2022/07/29 03:06:58;;;;;;;9.15;3.47;;;;;;;14.75;48.41;101244.03;5013362;28;20471;-70
2022/07/29 03:09:26;;;;;;;12.20;3.47;;;;;;;14.59;48.68;101242.19;5013008;28;20500;-70
2022/07/29 03:11:54;;;;;;;13.13;3.17;;;;;;;14.46;48.73;101241.88;5012034;28;20057;-70
2022/07/29 03:14:22;;;;;;;14.25;3.80;;;;;;;14.38;49.26;101245.44;5013155;28;20469;-70
2022/07/29 03:16:50;;;;;;;7.60;3.30;;;;;;;14.51;48.89;101237.66;5011593;28;20041;-70
2022/07/29 03:19:18;;;;;;;13.48;3.50;;;;;;;14.44;48.96;101239.38;5013279;28;20046;-70
2022/07/29 03:21:45;;;;;;;14.88;3.85;;;;;;;14.39;49.30;101235.50;5012397;28;20125;-70
2022/07/29 03:24:34;;;;;;;11.80;3.55;;;;;;;14.30;49.38;101232.81;5012279;28;20062;-70
2022/07/29 03:27:01;;;;;;;14.55;3.10;;;;;;;14.35;49.30;101235.00;5013296;28;20072;-69
2022/07/29 03:29:29;;;;;;;10.45;3.65;;;;;;;14.37;49.53;101229.44;5012065;28;20042;-68
2022/07/29 03:32:02;;;;;;;11.88;3.65;;;;;;;14.32;49.51;101231.78;5010764;28;20053;-68
2022/07/29 03:34:32;;;;;;;11.40;3.70;;;;;;;14.46;49.10;101233.78;5010861;28;20502;-68
2022/07/29 03:36:59;;;;;;;10.80;3.28;;;;;;;14.48;49.08;101229.06;5008423;28;20486;-69
2022/07/29 03:39:29;;;;;;;11.98;3.25;;;;;;;14.38;49.28;101228.41;5011046;28;20067;-69
2022/07/29 03:41:58;;;;;;;14.55;3.30;;;;;;;14.32;49.58;101229.09;5012377;28;20074;-68
2022/07/29 03:44:27;;;;;;;8.43;3.60;;;;;;;14.37;49.33;101226.75;5013176;28;20474;-69
2022/07/29 03:46:58;;;;;;;10.82;3.30;;;;;;;14.36;49.16;101209.72;5012036;28;20444;-69
2022/07/29 03:49:26;;;;;;;9.30;3.23;;;;;;;14.32;49.51;101215.59;5006788;28;20054;-69
2022/07/29 03:51:53;;;;;;;8.85;3.08;;;;;;;14.26;49.43;101215.28;5012240;28;20104;-69
2022/07/29 03:54:19;;;;;;;10.48;3.58;;;;;;;14.34;49.56;101227.06;5012114;28;20065;-69
2022/07/29 03:56:51;;;;;;;10.40;3.30;;;;;;;14.27;49.58;101219.66;5010953;28;20046;-69
2022/07/29 03:59:21;;;;;;;7.78;3.35;;;;;;;14.27;49.49;101216.97;5011486;28;20458;-69
2022/07/29 04:01:48;;;;;;;13.60;3.38;;;;;;;14.35;49.33;101229.59;5012282;28;20050;-69
2022/07/29 04:04:15;;;;;;;7.88;3.35;;;;;;;14.04;50.12;101224.09;5012586;28;20123;-69
2022/07/29 04:06:44;;;;;;;10.45;3.00;;;;;;;14.20;49.71;101220.53;5012388;28;20042;-69
2022/07/29 04:09:14;;;;;;;12.93;3.60;;;;;;;14.46;49.07;101225.69;5011687;28;20058;-69
2022/07/29 04:11:41;;;;;;;13.63;3.60;;;;;;;14.35;49.47;101217.97;5012449;28;20049;-69
2022/07/29 04:14:28;;;;;;;10.73;3.75;;;;;;;14.13;50.08;101230.34;5010538;28;20054;-70
2022/07/29 04:16:55;;;;;;;13.05;3.67;;;;;;;14.22;49.65;101224.75;5006097;28;20137;-70
2022/07/29 04:19:21;;;;;;;9.93;3.78;;;;;;;14.45;49.45;101237.50;5011494;28;20076;-69
2022/07/29 04:21:48;;;;;;;11.18;3.30;;;;;;;14.31;49.77;101236.34;5011441;28;20076;-69
2022/07/29 04:24:14;;;;;;;14.63;3.45;;;;;;;14.30;49.71;101234.69;5011915;28;20065;-68
2022/07/29 04:26:42;;;;;;;10.95;3.53;;;;;;;14.30;49.97;101231.97;5013311;28;20147;-70
2022/07/29 04:29:08;;;;;;;14.82;3.70;;;;;;;14.14;50.17;101232.84;5015052;28;20128;-70
2022/07/29 04:31:35;;;;;;;10.73;3.60;;;;;;;14.36;49.43;101230.44;5012003;28;20397;-70
2022/07/29 04:34:02;;;;;;;12.55;3.28;;;;;;;14.42;49.59;101235.16;5011722;28;20049;-70
2022/07/29 04:36:28;;;;;;;13.15;3.47;;;;;;;14.24;49.85;101235.38;5010216;28;20077;-69
2022/07/29 04:38:55;;;;;;;13.15;3.47;;;;;;;14.28;49.74;101232.13;5004440;28;20056;-70
2022/07/29 04:41:22;;;;;;;11.45;3.22;;;;;;;14.19;49.89;101235.03;5024342;28;20053;-70
2022/07/29 04:44:00;;;;;;;11.15;3.38;;;;;;;14.27;49.42;101229.63;5011311;28;20042;-69
2022/07/29 04:46:27;;;;;;;10.63;3.30;;;;;;;14.22;49.63;101223.88;5010582;28;20050;-69
2022/07/29 04:48:53;;;;;;;10.90;3.80;;;;;;;14.37;49.42;101232.13;5010707;28;20049;-70
2022/07/29 04:51:20;;;;;;;13.40;3.58;;;;;;;14.38;49.39;101229.25;5012454;28;20054;-70
2022/07/29 04:53:47;;;;;;;7.57;3.15;;;;;;;14.21;49.87;101233.84;5017009;28;20578;-70
2022/07/29 04:56:14;;;;;;;12.80;3.42;;;;;;;14.32;49.49;101235.31;5010413;28;20078;-68
2022/07/29 04:58:40;;;;;;;6.82;3.17;;;;;;;14.36;49.54;101234.00;5010889;28;20073;-70
2022/07/29 05:01:07;;;;;;;16.02;3.65;;;;;;;14.29;49.59;101239.25;5011082;28;20123;-70
2022/07/29 05:03:34;;;;;;;11.38;3.20;;;;;;;14.45;49.32;101232.94;5011980;28;20124;-70
2022/07/29 05:06:00;;;;;;;13.10;3.50;;;;;;;14.47;49.12;101243.59;5011525;28;20164;-70
2022/07/29 05:08:27;;;;;;;13.15;3.70;;;;;;;14.52;49.20;101238.50;5010561;28;20136;-70
2022/07/29 05:10:54;;;;;;;9.43;3.40;;;;;;;14.47;49.20;101238.19;5010749;28;20474;-70
2022/07/29 05:13:20;;;;;;;10.10;3.60;;;;;;;14.27;49.52;101232.31;5011003;28;20476;-68
2022/07/29 05:15:47;;;;;;;13.65;3.05;;;;;;;14.34;49.47;101227.91;5009618;28;20038;-69
2022/07/29 05:18:13;;;;;;;11.23;3.55;;;;;;;14.54;49.00;101239.16;5007504;28;20143;-69
2022/07/29 05:20:40;;;;;;;12.50;3.47;;;;;;;14.64;48.81;101239.81;5010683;28;20042;-70
2022/07/29 05:23:07;;;;;;;14.40;3.55;;;;;;;14.55;48.94;101235.44;5011085;28;20069;-70
2022/07/29 05:25:33;;;;;;;16.42;4.03;;;;;;;14.68;48.78;101238.44;5011041;28;20129;-69
2022/07/29 05:28:11;;;;;;;12.73;3.30;;;;;;;14.61;48.62;101231.22;5010869;28;20091;-69
2022/07/29 05:30:37;;;;;;;16.80;3.85;;;;;;;14.72;48.38;101218.19;5006708;28;20156;-69
2022/07/29 05:33:04;;;;;;;12.35;3.60;;;;;;;14.68;48.48;101226.81;5010757;28;20105;-69
2022/07/29 05:35:30;;;;;;;11.48;3.60;;;;;;;14.58;48.62;101227.00;5014985;28;20125;-69
2022/07/29 05:37:57;;;;;;;12.38;3.42;;;;;;;14.60;48.67;101227.69;5015098;28;20072;-69
2022/07/29 05:40:23;;;;;;;16.85;3.35;;;;;;;14.67;48.25;101234.06;5013123;28;20593;-69
2022/07/29 05:42:50;;;;;;;10.27;3.08;;;;;;;14.92;48.12;101229.41;5010896;28;20470;-69
2022/07/29 05:45:16;;;;;;;11.95;3.25;;;;;;;14.89;48.03;101231.63;5014920;28;20142;-69
2022/07/29 05:47:43;;;;;;;10.85;3.10;;;;;;;14.81;48.06;101227.13;5014194;28;20046;-69
2022/07/29 05:50:10;;;;;;;11.63;3.47;;;;;;;14.75;48.06;101233.22;5014507;28;20099;-69
2022/07/29 05:52:36;;;;;;;11.13;3.22;;;;;;;14.82;48.21;101234.19;5014991;28;20077;-69
2022/07/29 05:55:05;;;;;;;11.35;3.38;;;;;;;15.04;47.60;101229.03;5014424;28;20049;-69
2022/07/29 05:57:32;;;;;;;11.27;3.20;;;;;;;15.25;47.21;101232.75;5014638;28;20065;-69
2022/07/29 05:59:58;;;;;;;13.07;3.53;;;;;;;15.62;46.26;101233.88;5013249;28;20123;-69
2022/07/29 06:02:25;;;;;;;11.57;3.22;;;;;;;15.38;46.76;101242.16;5014521;28;20041;-70
2022/07/29 06:04:52;;;;;;;16.58;3.33;;;;;;;15.53;46.53;101234.94;5013011;28;20061;-70
2022/07/29 06:07:18;;;;;;;8.07;2.80;;;;;;;15.42;46.55;101228.09;5013893;28;20517;-69
2022/07/29 06:09:45;;;;;;;8.80;3.00;;;;;;;15.46;46.60;101225.88;5013137;28;20125;-69
2022/07/29 06:12:11;;;;;;;9.50;2.80;;;;;;;15.31;46.84;101223.09;5014991;28;20514;-69
2022/07/29 06:14:38;;;;;;;11.35;3.28;;;;;;;15.61;46.26;101226.78;5013625;28;20471;-69
2022/07/29 06:17:05;;;;;;;11.77;3.22;;;;;;;15.86;45.89;101234.72;5014150;28;20109;-70
2022/07/29 06:19:34;;;;;;;14.75;3.28;;;;;;;15.92;45.54;101223.19;5010843;28;20383;-69
2022/07/29 06:22:01;;;;;;;12.77;2.75;;;;;;;15.71;45.92;101232.81;5013136;28;20124;-70
2022/07/29 06:24:27;;;;;;;12.80;2.97;;;;;;;15.83;45.70;101233.22;5013265;28;20053;-70
2022/07/29 06:26:54;;;;;;;7.32;2.90;;;;;;;15.89;45.87;101223.53;5014147;28;20060;-70
2022/07/29 06:29:21;;;;;;;11.27;3.10;;;;;;;16.05;45.72;101225.22;5013288;28;20084;-70
2022/07/29 06:31:47;;;;;;;14.18;2.58;;;;;;;15.89;45.69;101218.97;5013271;28;20129;-70
2022/07/29 06:34:14;;;;;;;11.20;3.30;;;;;;;16.02;45.20;101228.31;5012823;28;20052;-70
2022/07/29 06:36:41;;;;;;;8.02;2.75;;;;;;;16.18;44.86;101217.31;5013987;28;20478;-70
2022/07/29 06:39:08;;;;;;;14.88;3.70;;;;;;;16.03;45.24;101236.25;5012746;28;20431;-70
2022/07/29 06:41:36;;;;;;;11.93;3.05;;;;;;;15.95;45.58;101223.66;5013435;28;20383;-69
2022/07/29 06:44:04;;;;;;;7.95;2.92;;;;;;;16.02;45.62;101234.59;5013109;28;20129;-69
2022/07/29 06:46:31;;;;;;;8.35;3.10;;;;;;;16.09;45.38;101230.13;5011906;28;20080;-70
2022/07/29 06:48:57;;;;;;;12.48;3.10;;;;;;;16.28;44.94;101238.72;5012815;28;20383;-70
2022/07/29 06:51:24;;;;;;;21.02;3.58;;;;;;;16.32;44.83;101232.75;5013687;28;20379;-70
2022/07/29 06:53:52;;;;;;;12.52;2.90;;;;;;;16.44;44.53;101243.97;5012604;28;20528;-70
2022/07/29 06:56:33;;;;;;;9.65;3.00;;;;;;;16.53;44.62;101244.72;5012754;28;20073;-70
2022/07/29 06:59:05;;;;;;;6.82;2.65;;;;;;;16.70;44.22;101245.38;5012186;28;20457;-70
2022/07/29 07:01:32;;;;;;;11.30;3.13;;;;;;;16.78;44.22;101242.56;5012709;28;20077;-70
2022/07/29 07:03:58;;;;;;;11.77;2.83;;;;;;;17.13;43.44;101244.47;5012344;28;20048;-70
2022/07/29 07:06:25;;;;;;;16.38;3.28;;;;;;;17.20;42.98;101243.69;5012466;28;20072;-70
2022/07/29 07:08:51;;;;;;;12.35;2.75;;;;;;;17.48;42.40;101247.41;5012370;28;20050;-70
2022/07/29 07:11:18;;;;;;;8.85;2.95;;;;;;;18.01;41.69;101247.88;5010152;28;20133;-71
2022/07/29 07:13:45;;;;;;;14.52;2.88;;;;;;;17.93;41.43;101247.19;5012831;28;20125;-70
2022/07/29 07:16:11;;;;;;;13.48;2.67;;;;;;;17.79;41.83;101243.53;5013891;28;20469;-70
2022/07/29 07:18:38;;;;;;;10.20;3.00;;;;;;;18.16;41.14;101233.38;5011365;28;20133;-70
2022/07/29 07:21:05;;;;;;;13.63;2.80;;;;;;;18.11;40.85;101238.53;5016604;28;20037;-70
2022/07/29 07:23:31;;;;;;;11.45;2.83;;;;;;;18.25;40.74;101240.34;5013645;28;20162;-70
2022/07/29 07:25:58;;;;;;;11.57;3.00;;;;;;;18.88;39.44;101237.56;5012274;28;20405;-70
2022/07/29 07:28:24;;;;;;;9.65;2.55;;;;;;;19.17;38.89;101236.44;5013197;28;20132;-70
2022/07/29 07:30:51;;;;;;;18.42;2.42;;;;;;;19.75;38.63;101233.22;5011906;28;20065;-70
2022/07/29 07:33:19;;;;;;;9.98;2.42;;;;;;;19.63;38.48;101230.25;5011760;28;20108;-70
2022/07/29 07:35:46;;;;;;;9.18;2.50;;;;;;;19.57;39.15;101225.63;5013105;28;20152;-71
2022/07/29 07:38:12;;;;;;;13.43;2.85;;;;;;;20.08;38.11;101233.22;5012540;28;20061;-71
2022/07/29 07:40:39;;;;;;;13.63;3.20;;;;;;;20.54;37.21;101233.16;5011132;28;20069;-71
2022/07/29 07:43:05;;;;;;;14.82;3.33;;;;;;;20.81;36.28;101233.91;5012274;28;20073;-72
2022/07/29 07:45:32;;;;;;;15.23;3.15;;;;;;;21.26;35.06;101235.81;5011595;28;20129;-71
2022/07/29 07:47:59;;;;;;;11.73;3.00;;;;;;;20.78;35.75;101239.78;5011511;28;20049;-71
2022/07/29 07:50:26;;;;;;;13.48;2.42;;;;;;;21.10;35.66;101226.22;5011670;28;20050;-71
2022/07/29 07:52:57;;;;;;;12.43;2.63;;;;;;;21.61;34.56;101230.75;5011762;28;20045;-72
2022/07/29 07:55:25;;;;;;;13.57;2.65;;;;;;;21.35;34.75;101224.41;5012256;28;20054;-71
2022/07/29 07:57:52;;;;;;;12.15;2.50;;;;;;;21.38;35.07;101221.25;5011268;28;20116;-72
2022/07/29 08:00:19;;;;;;;9.05;2.40;;;;;;;21.87;33.63;101229.72;5011760;28;20479;-71
2022/07/29 08:02:49;;;;;;;7.75;2.88;;;;;;;21.64;34.08;101222.13;5011971;28;20136;-71
2022/07/29 08:05:17;;;;;;;7.72;2.20;;;;;;;20.97;35.19;101226.28;5011925;28;20549;-72
2022/07/29 08:07:45;;;;;;;12.02;2.45;;;;;;;20.98;35.50;101222.53;5012214;28;20041;-71
2022/07/29 08:10:51;;;;;;;11.15;2.47;;;;;;;20.89;35.60;101224.63;5009579;28;20080;-71
2022/07/29 08:13:04;;;;;;;8.38;2.00;;;;;;;20.87;35.43;101218.56;5011991;28;20042;-71
2022/07/29 08:15:31;;;;;;;10.82;2.60;;;;;;;20.66;35.48;101219.69;5005578;28;20516;-72
2022/07/29 08:17:57;;;;;;;15.10;2.40;;;;;;;20.94;35.14;101221.25;5012347;28;20562;-72
2022/07/29 08:20:24;;;;;;;10.00;2.67;;;;;;;20.99;34.96;101226.91;5012707;28;20124;-72
2022/07/29 08:22:51;;;;;;;9.60;2.53;;;;;;;21.61;34.03;101217.94;5010235;28;20052;-71
2022/07/29 08:25:20;;;;;;;8.25;2.78;;;;;;;22.01;33.41;101214.06;5011589;28;20136;-71
2022/07/29 08:27:47;;;;;;;7.15;2.25;;;;;;;22.07;33.51;101211.28;5011013;28;20050;-71
2022/07/29 08:30:15;;;;;;;10.77;2.05;;;;;;;22.01;33.44;101208.59;5011431;28;20489;-71
2022/07/29 08:32:41;;;;;;;11.55;2.83;;;;;;;22.92;31.14;101217.94;5012368;28;20062;-71
2022/07/29 08:35:21;;;;;;;15.80;2.88;;;;;;;22.60;31.68;101203.59;5011488;28;20050;-72
2022/07/29 08:37:48;;;;;;;11.63;2.45;;;;;;;22.37;32.34;101201.53;5011207;28;20076;-71
2022/07/29 08:40:15;;;;;;;8.13;1.98;;;;;;;22.64;31.42;101204.81;5011627;28;20085;-71
2022/07/29 08:42:41;;;;;;;8.40;2.30;;;;;;;22.72;31.51;101202.59;5012137;28;20073;-72
2022/07/29 08:45:09;;;;;;;5.95;1.92;;;;;;;23.10;29.87;101209.69;5011385;28;20132;-73
2022/07/29 08:47:39;;;;;;;8.13;2.42;;;;;;;22.84;29.86;101207.28;5012088;28;20080;-71
2022/07/29 08:50:09;;;;;;;13.88;2.05;;;;;;;22.20;31.91;101204.84;5009873;28;20042;-71
2022/07/29 08:52:39;;;;;;;15.98;2.55;;;;;;;21.95;31.72;101204.06;5011237;28;20073;-72
2022/07/29 08:55:07;;;;;;;5.60;1.88;;;;;;;22.07;31.73;101208.53;5011382;28;20049;-71
2022/07/29 08:57:35;;;;;;;8.57;2.15;;;;;;;22.19;31.02;101207.81;5011014;28;20137;-72
2022/07/29 09:00:08;;;;;;;8.27;2.50;;;;;;;22.41;31.00;101208.22;5010772;28;20046;-71
2022/07/29 09:02:44;;;;;;;16.80;2.42;;;;;;;22.05;31.68;101201.66;5011674;28;20541;-71
2022/07/29 09:05:13;;;;;;;7.63;2.38;;;;;;;22.34;30.74;101208.28;5011717;28;20056;-71
2022/07/29 09:07:42;;;;;;;19.15;3.30;;;;;;;23.35;29.59;101211.47;5011131;28;20073;-73
2022/07/29 09:10:09;;;;;;;8.43;2.80;;;;;;;23.86;28.64;101207.31;5010610;28;20066;-71
2022/07/29 09:12:36;;;;;;;11.18;3.10;;;;;;;24.49;27.83;101212.06;5010720;28;20053;-72
2022/07/29 09:15:04;;;;;;;10.13;2.88;;;;;;;24.79;27.60;101205.56;5010580;28;20042;-71
2022/07/29 09:17:49;;;;;;;8.02;2.47;;;;;;;24.84;26.78;101197.41;5010144;28;20057;-71
2022/07/29 09:20:18;;;;;;;8.30;2.60;;;;;;;24.49;27.11;101195.59;5011622;28;20129;-71
2022/07/29 09:22:49;;;;;;;7.70;2.53;;;;;;;24.23;27.63;101199.69;5011212;28;20172;-72
2022/07/29 09:25:32;;;;;;;7.47;2.28;;;;;;;24.02;27.70;101200.25;5011330;28;20074;-72
2022/07/29 09:28:25;;;;;;;10.35;2.03;;;;;;;22.99;29.03;101194.06;5009636;28;20052;-72
2022/07/29 09:30:57;;;;;;;8.50;2.10;;;;;;;23.14;29.13;101199.13;5009455;28;20136;-71
2022/07/29 09:33:34;;;;;;;7.35;2.13;;;;;;;22.84;28.69;101196.34;5012129;28;20053;-71
2022/07/29 09:36:04;;;;;;;4.75;1.95;;;;;;;22.80;28.96;101194.06;5010515;28;20074;-70
2022/07/29 09:38:33;;;;;;;8.50;2.22;;;;;;;22.67;29.69;101182.47;5006327;28;20050;-72
2022/07/29 09:41:03;;;;;;;7.18;2.00;;;;;;;22.56;29.61;101187.63;5010632;28;20050;-72
2022/07/29 09:43:32;;;;;;;13.00;1.92;;;;;;;22.95;29.61;101187.38;5010375;28;20050;-72
2022/07/29 09:46:12;;;;;;;10.70;2.10;;;;;;;23.33;29.15;101180.72;5011752;28;20490;-72
2022/07/29 09:48:39;;;;;;;10.45;2.20;;;;;;;23.53;28.24;101186.72;5011454;28;20119;-72
2022/07/29 09:51:19;;;;;;;7.50;2.53;;;;;;;23.27;28.82;101179.78;5010266;28;20042;-72
2022/07/29 09:53:54;;;;;;;13.98;2.65;;;;;;;23.43;28.36;101176.38;5011113;28;20046;-71
2022/07/29 09:56:43;;;;;;;6.22;1.95;;;;;;;23.24;28.32;101175.59;5011521;28;20046;-71
2022/07/29 09:59:11;;;;;;;6.25;1.73;;;;;;;23.36;27.48;101169.31;5011144;28;20046;-71
2022/07/29 10:01:37;;;;;;;10.43;2.08;;;;;;;23.65;27.32;101170.34;5010446;28;20053;-71
2022/07/29 10:04:04;;;;;;;8.13;1.90;;;;;;;23.79;27.07;101169.06;5010563;28;20096;-71
2022/07/29 10:06:31;;;;;;;7.00;1.85;;;;;;;24.26;25.83;101169.00;5010634;28;20501;-71
2022/07/29 10:09:10;;;;;;;5.80;2.17;;;;;;;24.71;25.61;101170.25;5010599;28;20096;-71
2022/07/29 10:11:37;;;;;;;6.03;1.67;;;;;;;24.63;25.46;101169.56;5011344;28;20508;-71
2022/07/29 10:14:16;;;;;;;8.90;2.40;;;;;;;24.88;25.18;101165.66;5010412;28;20076;-71
2022/07/29 10:16:43;;;;;;;7.65;2.15;;;;;;;24.62;26.10;101162.41;5010724;28;20053;-71
2022/07/29 10:19:10;;;;;;;12.55;2.45;;;;;;;24.55;25.87;101160.91;5010530;28;20555;-71
2022/07/29 10:21:39;;;;;;;10.38;2.05;;;;;;;24.17;25.78;101165.81;5013646;28;20405;-71
2022/07/29 10:24:06;;;;;;;10.70;2.17;;;;;;;24.14;24.63;101157.25;5013678;28;20042;-71
2022/07/29 10:26:40;;;;;;;4.93;2.08;;;;;;;24.28;24.81;101161.41;5013668;28;20437;-71
2022/07/29 10:29:07;;;;;;;11.02;1.80;;;;;;;24.31;25.68;101160.09;5013660;28;20124;-71
2022/07/29 10:32:17;;;;;;;13.32;2.40;;;;;;;24.23;24.96;101166.78;5013811;28;20042;-71
2022/07/29 10:34:53;;;;;;;6.00;2.10;;;;;;;24.02;26.48;101162.72;5011325;28;20486;-72
2022/07/29 10:37:28;;;;;;;4.53;1.67;;;;;;;23.66;25.80;101170.09;5015212;28;20045;-71
2022/07/29 10:43:22;;;;;;;9.60;2.05;;;;;;;23.91;25.53;101163.56;5013699;28;20475;-72
2022/07/29 10:45:57;;;;;;;8.77;1.65;;;;;;;24.06;24.72;101163.94;5007473;28;20046;-71
2022/07/29 10:48:23;;;;;;;12.45;1.77;;;;;;;23.89;25.30;101158.34;5013054;28;20605;-73
2022/07/29 10:51:04;;;;;;;8.57;1.80;;;;;;;23.57;25.60;101157.78;5012903;28;20132;-72
2022/07/29 10:53:52;;;;;;;8.10;1.73;;;;;;;23.53;25.97;101153.03;5012324;28;20072;-72
2022/07/29 10:56:33;;;;;;;5.60;2.10;;;;;;;23.45;25.26;101151.50;5013334;28;20096;-72
2022/07/29 10:59:23;;;;;;;5.88;1.88;;;;;;;23.69;25.47;101147.69;5013358;28;20125;-72
2022/07/29 11:01:52;;;;;;;4.47;1.50;;;;;;;23.55;24.91;101148.16;5014257;28;20042;-72
2022/07/29 11:04:45;;;;;;;7.68;1.80;;;;;;;23.40;24.89;101151.34;5013009;28;20128;-72
2022/07/29 11:07:16;;;;;;;14.50;2.42;;;;;;;23.30;25.34;101153.84;5013369;28;20058;-72
2022/07/29 11:09:45;;;;;;;9.45;1.77;;;;;;;23.71;24.69;101142.84;5013622;28;20398;-72
2022/07/29 11:12:36;;;;;;;6.18;1.60;;;;;;;24.33;24.74;101142.28;5012765;28;20509;-72
2022/07/29 11:15:12;;;;;;;13.25;1.75;;;;;;;24.47;25.55;101139.31;5012333;28;20238;-72
2022/07/29 11:17:54;;;;;;;5.10;2.15;;;;;;;24.49;24.28;101140.75;5012415;28;20500;-72
2022/07/29 11:20:44;;;;;;;8.35;1.90;;;;;;;24.30;24.55;101125.50;5012608;28;20149;-72
2022/07/29 11:23:43;;;;;;;2.90;1.60;;;;;;;24.42;24.79;101124.44;5013646;28;20505;-72
2022/07/29 11:26:12;;;;;;;5.13;2.03;;;;;;;24.51;24.84;101130.38;5011061;28;20053;-73
2022/07/29 11:29:04;;;;;;;5.22;2.15;;;;;;;24.38;24.89;101126.00;5011996;28;20490;-72
2022/07/29 11:31:41;;;;;;;3.90;2.00;;;;;;;24.87;25.11;101123.66;5009083;28;20042;-71
2022/07/29 11:34:27;;;;;;;7.05;2.00;;;;;;;25.24;25.44;101125.19;4991975;28;20054;-71
2022/07/29 11:37:16;;;;;;;10.15;1.88;;;;;;;25.58;24.68;101112.25;5011082;28;20046;-71
2022/07/29 11:39:47;;;;;;;7.30;1.92;;;;;;;25.13;24.85;101110.41;5012207;28;20071;-71
2022/07/29 11:42:19;;;;;;;16.10;2.08;;;;;;;25.23;25.17;101118.00;5012458;28;20548;-71
2022/07/29 11:45:10;;;;;;;3.60;1.90;;;;;;;24.82;26.35;101119.97;5012712;28;20429;-72
2022/07/29 11:47:58;;;;;;;6.10;2.17;;;;;;;24.83;25.98;101111.50;5012677;28;20394;-72